Time;durP1;ratioP1;P1;durP2;ratioP2;P2;SDS_P1;SDS_P2;PMS_P1;PMS_P2;Temp;Humidity;BMP_temperature;BMP_pressure;BME280_temperature;BME280_humidity;BME280_pressure;Samples;Min_cycle;Max_cycle;Signal;HPM_P1;HPM_P2
2022/05/31 00:02:21;;;;;;;4.95;1.50;;;;;;;23.89;46.45;96568.47;5134780;27;20027;-34
2022/05/31 00:04:47;;;;;;;2.83;1.20;;;;;;;23.97;46.16;96572.97;5135088;27;20051;-34
2022/05/31 00:07:13;;;;;;;4.22;2.08;;;;;;;23.94;46.29;96564.91;5134907;27;20058;-34
2022/05/31 00:09:38;;;;;;;3.95;1.77;;;;;;;23.90;46.55;96565.19;5116344;27;20360;-34
2022/05/31 00:12:06;;;;;;;5.88;1.80;;;;;;;23.90;46.36;96562.41;5134642;27;20030;-34
2022/05/31 00:14:32;;;;;;;5.30;1.65;;;;;;;23.91;46.52;96552.84;5134471;27;20064;-34
2022/05/31 00:16:59;;;;;;;3.88;2.17;;;;;;;23.92;46.55;96561.91;5134931;27;20023;-34
2022/05/31 00:19:25;;;;;;;3.47;1.60;;;;;;;23.90;46.45;96562.41;5134509;27;20527;-34
2022/05/31 00:21:59;;;;;;;6.15;1.50;;;;;;;23.89;46.53;96543.53;5134736;27;20027;-34
2022/05/31 00:24:24;;;;;;;4.57;1.40;;;;;;;23.87;46.62;96546.81;5116113;27;20363;-34
2022/05/31 00:26:50;;;;;;;5.50;1.45;;;;;;;23.89;46.57;96544.28;5134464;27;20037;-35
2022/05/31 00:29:16;;;;;;;3.80;1.42;;;;;;;23.89;46.56;96544.28;5134376;27;20103;-34
2022/05/31 00:31:46;;;;;;;4.07;1.77;;;;;;;23.90;46.90;96548.56;5116242;28;20023;-34
2022/05/31 00:34:12;;;;;;;7.00;1.85;;;;;;;23.88;46.81;96540.00;5134586;27;20459;-34
2022/05/31 00:36:40;;;;;;;4.22;1.45;;;;;;;23.90;46.62;96540.25;5134351;27;20123;-34
2022/05/31 00:39:06;;;;;;;3.63;1.35;;;;;;;23.91;46.82;96530.69;5134327;27;20047;-34
2022/05/31 00:41:34;;;;;;;5.10;1.50;;;;;;;23.95;46.46;96535.94;5134532;27;20069;-34
2022/05/31 00:44:04;;;;;;;4.35;1.45;;;;;;;23.92;46.86;96539.75;5134088;27;20117;-34
2022/05/31 00:46:52;;;;;;;3.50;1.20;;;;;;;23.93;46.78;96538.47;5134295;27;20420;-34
2022/05/31 00:49:40;;;;;;;4.88;1.55;;;;;;;23.93;46.84;96532.94;5134234;27;20386;-34
2022/05/31 00:52:11;;;;;;;4.38;1.50;;;;;;;23.93;46.92;96527.41;5134244;27;20034;-34
2022/05/31 00:54:41;;;;;;;5.22;1.60;;;;;;;23.91;46.76;96525.13;5134511;27;20015;-34
2022/05/31 00:57:08;;;;;;;4.15;1.67;;;;;;;23.90;46.75;96528.41;5133979;27;20119;-33
2022/05/31 00:59:37;;;;;;;3.10;1.40;;;;;;;23.90;46.83;96528.41;5134446;27;20391;-34
2022/05/31 01:02:05;;;;;;;2.92;1.80;;;;;;;23.86;46.65;96522.41;5134218;27;20023;-34
2022/05/31 01:04:38;;;;;;;3.85;1.40;;;;;;;23.84;46.88;96531.22;5134056;27;20038;-34
2022/05/31 01:07:04;;;;;;;3.35;1.50;;;;;;;23.87;46.70;96529.44;5134219;27;20027;-34
2022/05/31 01:09:30;;;;;;;3.15;1.60;;;;;;;23.87;46.65;96519.09;5134181;27;20383;-34
2022/05/31 01:11:57;;;;;;;5.18;1.83;;;;;;;23.86;46.96;96525.19;5136776;27;20478;-34
2022/05/31 01:14:23;;;;;;;6.40;2.58;;;;;;;23.87;46.78;96523.91;5138094;27;20207;-34
2022/05/31 01:17:01;;;;;;;3.63;1.50;;;;;;;23.83;46.59;96524.19;5138109;27;20075;-34
2022/05/31 01:22:11;;;;;;;3.88;1.70;;;;;;;23.86;46.51;96516.88;5138518;27;20416;-34
2022/05/31 01:24:55;;;;;;;3.13;1.33;;;;;;;23.82;46.54;96514.38;5137897;27;20031;-34
2022/05/31 01:27:32;;;;;;;2.35;1.27;;;;;;;23.79;46.61;96522.94;5137863;27;20106;-34
2022/05/31 01:30:02;;;;;;;3.63;1.55;;;;;;;23.82;46.49;96525.44;5137971;27;20371;-34
2022/05/31 01:32:27;;;;;;;5.78;1.83;;;;;;;23.82;46.51;96528.22;5137636;27;20023;-34
2022/05/31 01:34:59;;;;;;;3.42;1.20;;;;;;;23.85;45.95;96521.66;5137645;27;20027;-34
2022/05/31 01:37:38;;;;;;;3.92;1.42;;;;;;;23.83;46.24;96521.41;5137574;27;20466;-34
2022/05/31 01:40:10;;;;;;;5.63;1.50;;;;;;;23.80;46.07;96530.00;5137625;27;20031;-34
2022/05/31 01:42:42;;;;;;;6.95;1.83;;;;;;;23.84;46.11;96531.22;5137645;27;20027;-34
2022/05/31 01:45:15;;;;;;;5.03;1.55;;;;;;;23.84;45.61;96531.22;5137556;27;20027;-34
2022/05/31 01:47:41;;;;;;;5.15;2.00;;;;;;;23.83;45.63;96534.50;5137814;27;20023;-34
2022/05/31 01:50:11;;;;;;;4.90;2.08;;;;;;;23.80;45.80;96527.97;5137525;27;20031;-34
2022/05/31 01:52:38;;;;;;;5.57;1.88;;;;;;;23.81;45.44;96537.78;5137271;27;20023;-34
2022/05/31 01:55:05;;;;;;;4.45;1.40;;;;;;;23.82;45.27;96533.00;5137613;27;20027;-34
2022/05/31 01:57:33;;;;;;;6.75;1.90;;;;;;;23.78;45.14;96522.19;5137046;27;20554;-34
2022/05/31 02:00:12;;;;;;;2.92;1.48;;;;;;;23.77;44.85;96515.16;5137089;27;20383;-34
2022/05/31 02:02:38;;;;;;;4.88;1.65;;;;;;;23.78;44.76;96524.97;5137487;27;20472;-34
2022/05/31 02:05:05;;;;;;;5.20;1.60;;;;;;;23.77;44.36;96526.22;5137069;27;20110;-34
2022/05/31 02:07:30;;;;;;;4.72;1.50;;;;;;;23.77;44.37;96531.75;5137026;27;20517;-34
2022/05/31 02:09:56;;;;;;;5.18;1.65;;;;;;;23.75;44.32;96528.75;5137078;27;20031;-34
2022/05/31 02:12:26;;;;;;;4.72;1.63;;;;;;;23.76;44.53;96532.28;5136993;27;20030;-34
2022/05/31 02:14:51;;;;;;;5.82;1.50;;;;;;;23.76;44.54;96524.72;5137280;27;20467;-34
2022/05/31 02:17:17;;;;;;;3.63;1.52;;;;;;;23.77;44.36;96545.59;5136848;27;20111;-34
2022/05/31 02:19:44;;;;;;;6.35;1.50;;;;;;;23.73;44.36;96550.69;5136744;27;20029;-34
2022/05/31 02:22:15;;;;;;;3.70;1.40;;;;;;;23.74;43.99;96552.16;5136097;27;20038;-34
2022/05/31 02:24:41;;;;;;;4.47;1.50;;;;;;;23.71;44.29;96550.44;5136429;27;20047;-34
2022/05/31 02:27:08;;;;;;;6.57;1.85;;;;;;;23.70;44.40;96554.47;5136776;27;20057;-34
2022/05/31 02:29:35;;;;;;;7.05;1.52;;;;;;;23.70;44.04;96548.94;5136693;27;20023;-34
2022/05/31 02:32:04;;;;;;;5.68;1.50;;;;;;;23.66;44.20;96547.69;5136491;27;20034;-34
2022/05/31 02:34:35;;;;;;;5.63;1.83;;;;;;;23.72;44.22;96546.41;5136427;27;20371;-34
2022/05/31 02:37:00;;;;;;;2.63;1.88;;;;;;;23.69;44.12;96544.66;5136765;27;20027;-34
2022/05/31 02:39:26;;;;;;;6.70;1.77;;;;;;;23.68;44.05;96537.59;5136054;27;20023;-34
2022/05/31 02:41:52;;;;;;;5.65;1.50;;;;;;;23.67;44.52;96549.94;5136444;27;20061;-34
2022/05/31 02:44:19;;;;;;;2.80;1.23;;;;;;;23.73;44.53;96547.16;5136506;27;20031;-34
2022/05/31 02:46:45;;;;;;;6.35;1.95;;;;;;;23.71;44.50;96539.34;5136391;27;20027;-34
2022/05/31 02:49:11;;;;;;;5.40;1.67;;;;;;;23.67;44.74;96538.88;5136225;27;20034;-34
2022/05/31 02:51:40;;;;;;;4.43;1.83;;;;;;;23.72;44.86;96542.88;5117963;27;20030;-34
2022/05/31 02:54:07;;;;;;;6.00;1.90;;;;;;;23.69;44.96;96536.34;5136050;27;20463;-34
2022/05/31 02:56:32;;;;;;;6.10;1.90;;;;;;;23.69;45.03;96541.88;5136027;27;20038;-34
2022/05/31 02:58:58;;;;;;;3.60;1.80;;;;;;;23.68;45.10;96543.16;5135804;27;20043;-34
2022/05/31 03:01:33;;;;;;;4.53;1.77;;;;;;;23.69;45.37;96536.34;5136098;27;20027;-34
2022/05/31 03:03:59;;;;;;;2.72;1.50;;;;;;;23.68;45.37;96534.84;5135701;27;20051;-34
2022/05/31 03:06:24;;;;;;;4.60;1.80;;;;;;;23.70;45.14;96539.88;5135998;27;20057;-34
2022/05/31 03:08:50;;;;;;;2.90;1.92;;;;;;;23.72;45.54;96540.13;5136123;27;20027;-34
2022/05/31 03:11:45;;;;;;;5.72;1.80;;;;;;;23.71;45.73;96539.34;5135650;27;20022;-34
2022/05/31 03:14:35;;;;;;;3.17;1.40;;;;;;;23.70;46.16;96542.63;5134602;27;20035;-34
2022/05/31 03:17:12;;;;;;;5.00;2.20;;;;;;;23.69;45.96;96532.81;5117853;27;20081;-35
2022/05/31 03:19:46;;;;;;;5.07;1.70;;;;;;;23.68;46.05;96537.59;5135570;27;20023;-34
2022/05/31 03:22:17;;;;;;;2.97;1.75;;;;;;;23.67;46.52;96538.88;5135591;27;20031;-34
2022/05/31 03:24:49;;;;;;;3.72;1.55;;;;;;;23.69;46.33;96530.81;5135397;27;20075;-34
2022/05/31 03:27:15;;;;;;;5.55;1.70;;;;;;;23.67;46.18;96530.56;5135484;27;20363;-34
2022/05/31 03:29:45;;;;;;;5.55;1.83;;;;;;;23.68;46.36;96528.53;5135485;27;20026;-34
2022/05/31 03:32:11;;;;;;;5.78;1.88;;;;;;;23.67;46.20;96533.31;5135241;27;20052;-34
2022/05/31 03:34:37;;;;;;;3.13;1.42;;;;;;;23.67;46.19;96527.03;5134961;27;20019;-34
2022/05/31 03:37:04;;;;;;;3.72;1.67;;;;;;;23.68;46.36;96523.75;5135407;27;20031;-34
2022/05/31 03:39:29;;;;;;;4.65;1.48;;;;;;;23.71;46.45;96531.06;5135282;27;20489;-34
2022/05/31 03:41:54;;;;;;;4.57;1.70;;;;;;;23.68;46.45;96534.09;5135589;27;20027;-34
2022/05/31 03:44:20;;;;;;;5.35;1.67;;;;;;;23.68;46.68;96537.59;5134957;27;20027;-34
2022/05/31 03:46:47;;;;;;;6.57;2.25;;;;;;;23.70;46.36;96535.09;5116780;27;20019;-34
2022/05/31 03:49:13;;;;;;;4.93;1.48;;;;;;;23.69;46.84;96538.34;5135108;27;20023;-34
2022/05/31 03:51:39;;;;;;;6.32;1.88;;;;;;;23.68;46.65;96542.38;5134915;27;20069;-34
2022/05/31 03:54:04;;;;;;;5.60;2.00;;;;;;;23.66;46.50;96536.59;5135007;27;20474;-34
2022/05/31 03:56:30;;;;;;;7.10;2.13;;;;;;;23.68;46.74;96543.16;5135023;27;20019;-34
2022/05/31 03:58:55;;;;;;;5.53;1.70;;;;;;;23.69;46.75;96547.41;5134718;27;20047;-34
2022/05/31 04:01:21;;;;;;;6.35;1.98;;;;;;;23.70;46.69;96556.47;5134840;27;20383;-34
2022/05/31 04:03:46;;;;;;;7.43;2.10;;;;;;;23.69;46.87;96547.41;5134870;27;20047;-34
2022/05/31 04:06:12;;;;;;;5.15;1.60;;;;;;;23.67;46.75;96547.16;5134495;27;20454;-34
2022/05/31 04:08:37;;;;;;;5.47;1.80;;;;;;;23.66;46.97;96548.44;5134843;27;20023;-34
2022/05/31 04:11:03;;;;;;;5.25;1.70;;;;;;;23.67;46.96;96560.25;5134611;27;20113;-34
2022/05/31 04:13:28;;;;;;;4.80;1.83;;;;;;;23.68;46.70;96556.22;5134639;27;20098;-34
2022/05/31 04:16:12;;;;;;;4.65;2.00;;;;;;;23.68;46.91;96557.00;5134536;27;20090;-34
2022/05/31 04:18:38;;;;;;;;;;;;;;;23.66;46.76;96562.28;5135101;27;20033;-34
2022/05/31 04:21:05;;;;;;;6.20;2.20;;;;;;;23.64;47.08;96567.56;5134475;27;19918;-34
2022/05/31 04:26:16;;;;;;;8.07;2.13;;;;;;;23.65;46.57;96558.00;5134446;27;20033;-35
2022/05/31 04:28:42;;;;;;;4.90;1.65;;;;;;;23.63;47.00;96560.53;5128441;27;20015;-34
2022/05/31 04:31:07;;;;;;;6.30;2.20;;;;;;;23.63;46.66;96560.53;5124409;27;20031;-34
2022/05/31 04:34:01;;;;;;;6.65;2.00;;;;;;;23.63;46.83;96557.75;5132330;27;20031;-34
2022/05/31 04:36:27;;;;;;;5.95;2.33;;;;;;;23.66;46.70;96561.53;5132148;27;20023;-34
2022/05/31 04:39:21;;;;;;;5.28;1.90;;;;;;;23.62;47.04;96564.56;5132156;27;20027;-35
2022/05/31 04:41:52;;;;;;;10.50;1.80;;;;;;;23.64;47.15;96557.25;5131699;28;20110;-34
2022/05/31 04:44:18;;;;;;;5.10;1.88;;;;;;;23.63;47.10;96555.75;5132085;28;20088;-34
2022/05/31 04:46:43;;;;;;;8.80;1.88;;;;;;;23.66;47.08;96564.28;5126439;27;20023;-34
2022/05/31 04:49:09;;;;;;;6.50;2.03;;;;;;;23.69;47.09;96572.34;5115795;28;20019;-34
2022/05/31 04:51:43;;;;;;;5.68;2.05;;;;;;;23.65;47.27;96582.91;5115477;27;20028;-34
2022/05/31 04:54:31;;;;;;;6.03;1.90;;;;;;;23.67;47.08;96576.88;5114258;28;20031;-34
2022/05/31 04:57:12;;;;;;;5.30;2.00;;;;;;;23.65;47.24;96571.84;5114547;28;20094;-34
2022/05/31 04:59:52;;;;;;;7.28;1.85;;;;;;;23.62;47.07;96575.63;5115796;28;20477;-35
2022/05/31 05:02:17;;;;;;;9.07;2.20;;;;;;;23.63;47.34;96574.38;5115702;28;20470;-34
2022/05/31 05:04:43;;;;;;;8.13;2.10;;;;;;;23.64;47.22;96578.66;5115373;28;20036;-34
2022/05/31 05:07:08;;;;;;;6.90;1.77;;;;;;;23.66;46.97;96578.88;5115536;28;20475;-34
2022/05/31 05:09:34;;;;;;;3.65;1.60;;;;;;;23.65;47.14;96585.69;5115550;28;20445;-34
2022/05/31 05:11:59;;;;;;;5.30;2.05;;;;;;;23.64;47.27;96592.50;5115496;28;20107;-34
2022/05/31 05:14:25;;;;;;;4.90;1.90;;;;;;;23.62;47.18;96595.75;5115444;28;20023;-34
2022/05/31 05:16:52;;;;;;;4.45;1.83;;;;;;;23.63;47.27;96591.72;5115116;28;20361;-34
2022/05/31 05:19:18;;;;;;;8.32;2.00;;;;;;;23.66;47.44;96598.28;5115573;28;20081;-36
2022/05/31 05:21:44;;;;;;;3.47;1.80;;;;;;;23.65;47.74;96594.00;5115422;28;20433;-34
2022/05/31 05:24:09;;;;;;;8.40;2.13;;;;;;;23.68;47.43;96598.53;5130391;27;20036;-34
2022/05/31 05:26:35;;;;;;;7.03;1.92;;;;;;;23.67;47.57;96594.25;5135929;27;20030;-34
2022/05/31 05:31:45;;;;;;;4.68;1.90;;;;;;;23.63;47.75;96596.50;5135795;27;20030;-34
2022/05/31 05:34:11;;;;;;;6.07;1.92;;;;;;;23.67;47.71;96599.78;5117189;27;20039;-35
2022/05/31 05:36:36;;;;;;;7.22;2.17;;;;;;;23.66;48.06;96592.72;5135643;27;20079;-34
2022/05/31 05:39:02;;;;;;;5.28;1.98;;;;;;;23.67;47.81;96591.47;5135202;27;20023;-35
2022/05/31 05:41:30;;;;;;;3.17;1.55;;;;;;;23.65;48.20;96596.75;5124654;27;20076;-34
2022/05/31 05:43:55;;;;;;;6.53;2.17;;;;;;;23.67;47.86;96597.00;5124632;27;20032;-34
2022/05/31 05:46:24;;;;;;;5.00;1.80;;;;;;;23.65;47.80;96594.00;5125603;27;20387;-34
2022/05/31 05:48:50;;;;;;;5.45;1.88;;;;;;;23.67;48.05;96591.47;5123784;27;20039;-34
2022/05/31 05:51:20;;;;;;;4.47;2.00;;;;;;;23.63;47.99;96605.56;5123207;27;20471;-34
2022/05/31 05:53:46;;;;;;;6.00;1.60;;;;;;;23.63;48.46;96599.28;5121212;27;20219;-34
2022/05/31 05:56:12;;;;;;;6.07;2.03;;;;;;;23.64;48.32;96604.31;5134722;27;20102;-34
2022/05/31 05:58:39;;;;;;;4.18;1.52;;;;;;;23.64;48.31;96601.53;5134841;27;20565;-34
2022/05/31 06:01:09;;;;;;;5.43;1.83;;;;;;;23.67;48.38;96607.34;5135099;27;20466;-34
2022/05/31 06:03:53;;;;;;;6.18;1.95;;;;;;;23.66;48.16;96606.56;5135242;27;20030;-34
2022/05/31 06:06:22;;;;;;;8.80;1.80;;;;;;;23.66;48.42;96592.72;5134810;27;20065;-34
2022/05/31 06:08:59;;;;;;;4.57;1.50;;;;;;;23.68;48.42;96592.22;5135161;27;20027;-34
2022/05/31 06:11:41;;;;;;;7.43;2.00;;;;;;;23.67;48.41;96594.25;5135109;27;20069;-35
2022/05/31 06:14:15;;;;;;;5.63;2.65;;;;;;;23.67;48.43;96594.25;5134887;27;20042;-34
2022/05/31 06:16:55;;;;;;;7.25;1.90;;;;;;;23.68;48.44;96601.28;5134213;27;20226;-34
2022/05/31 06:19:25;;;;;;;7.15;2.67;;;;;;;23.61;48.80;96596.28;5134699;27;20037;-35
2022/05/31 06:21:52;;;;;;;6.25;2.10;;;;;;;23.55;49.03;96598.31;5135085;27;20374;-34
2022/05/31 06:24:19;;;;;;;5.53;2.05;;;;;;;23.60;49.02;96606.63;5118137;27;20024;-34
2022/05/31 06:26:45;;;;;;;7.57;1.75;;;;;;;23.66;49.08;96608.59;5095840;28;20422;-35
2022/05/31 06:29:11;;;;;;;3.58;2.17;;;;;;;23.67;48.86;96619.16;5113855;28;20030;-36
2022/05/31 06:31:38;;;;;;;5.78;1.85;;;;;;;23.70;48.66;96612.63;5113928;28;20408;-34
2022/05/31 06:34:04;;;;;;;6.65;1.98;;;;;;;23.72;48.59;96621.16;5114022;28;20023;-34
2022/05/31 06:36:29;;;;;;;5.30;1.80;;;;;;;23.70;48.47;96620.16;5114232;28;20115;-34
2022/05/31 06:38:55;;;;;;;7.07;1.83;;;;;;;23.61;48.79;96635.78;5114134;28;20036;-34
2022/05/31 06:41:21;;;;;;;4.93;1.48;;;;;;;23.43;49.80;96630.03;5113776;28;20027;-34
2022/05/31 06:43:46;;;;;;;5.72;1.70;;;;;;;23.53;49.42;96625.75;5113998;28;20024;-34
2022/05/31 06:46:12;;;;;;;6.43;2.38;;;;;;;23.43;49.89;96628.03;5113608;28;20104;-34
2022/05/31 06:48:38;;;;;;;7.65;2.35;;;;;;;23.41;49.98;96615.94;5095626;28;20028;-34
2022/05/31 06:51:09;;;;;;;5.65;1.83;;;;;;;23.48;49.70;96620.97;5113706;28;20464;-34
2022/05/31 06:59:03;;;;;;;3.33;1.83;;;;;;;23.52;49.96;96610.41;5113425;28;20062;-34
2022/05/31 07:01:35;;;;;;;6.82;1.92;;;;;;;23.38;50.51;96600.34;5113316;27;20036;-34
2022/05/31 07:04:01;;;;;;;4.55;2.20;;;;;;;23.49;49.94;96605.88;5130060;27;20026;-34
2022/05/31 07:06:27;;;;;;;5.47;1.65;;;;;;;23.54;49.83;96616.19;5135879;27;20023;-34
2022/05/31 07:08:53;;;;;;;5.72;2.22;;;;;;;23.54;49.80;96613.41;5134981;27;20030;-34
2022/05/31 07:11:19;;;;;;;3.17;1.70;;;;;;;23.63;49.26;96618.66;5135317;27;20507;-34
2022/05/31 07:13:45;;;;;;;7.55;2.03;;;;;;;23.62;49.26;96619.94;5134822;27;20034;-34
2022/05/31 07:16:10;;;;;;;4.20;1.90;;;;;;;23.56;49.47;96630.28;5135671;27;20015;-34
2022/05/31 07:18:36;;;;;;;3.72;1.83;;;;;;;23.59;49.27;96632.78;5135782;27;20149;-34
2022/05/31 07:21:01;;;;;;;4.22;2.20;;;;;;;23.62;49.19;96642.06;5135728;27;20026;-34
2022/05/31 07:23:27;;;;;;;5.28;2.25;;;;;;;23.45;49.72;96636.56;5135842;27;20044;-34
2022/05/31 07:25:52;;;;;;;6.35;2.15;;;;;;;23.57;49.14;96629.03;5135410;27;20019;-35
2022/05/31 07:28:19;;;;;;;6.30;2.47;;;;;;;23.57;49.39;96634.56;5135568;27;20042;-34
2022/05/31 07:30:44;;;;;;;5.03;2.08;;;;;;;23.44;49.22;96643.38;5135445;27;20027;-34
2022/05/31 07:33:12;;;;;;;6.20;2.10;;;;;;;23.54;49.08;96646.63;5117129;27;20466;-34
2022/05/31 07:35:41;;;;;;;5.13;1.65;;;;;;;23.53;48.94;96648.66;5135298;27;20038;-34
2022/05/31 07:38:07;;;;;;;6.18;2.22;;;;;;;23.56;48.58;96635.81;5135574;27;20109;-34
2022/05/31 07:40:34;;;;;;;8.98;2.30;;;;;;;23.61;48.38;96640.59;5135534;27;20031;-34
2022/05/31 07:43:01;;;;;;;6.55;2.22;;;;;;;23.73;48.35;96638.53;5135427;27;20098;-34
2022/05/31 07:45:27;;;;;;;10.32;2.30;;;;;;;23.27;49.30;96637.84;5135146;27;20351;-34
2022/05/31 07:47:53;;;;;;;5.95;2.58;;;;;;;23.17;49.57;96635.88;5135154;27;20026;-34
2022/05/31 07:51:14;;;;;;;8.05;2.35;;;;;;;23.32;49.18;96639.13;5134977;27;20054;-34
2022/05/31 07:53:39;;;;;;;6.97;2.00;;;;;;;23.15;49.58;96635.63;5134973;27;20122;-34
2022/05/31 07:56:08;;;;;;;6.88;2.00;;;;;;;23.36;49.33;96636.09;5116489;27;20051;-34
2022/05/31 07:58:38;;;;;;;7.38;2.22;;;;;;;23.22;49.35;96641.41;5134730;27;20047;-34
2022/05/31 08:01:13;;;;;;;9.32;2.53;;;;;;;23.20;49.26;96635.63;5134940;27;20066;-34
2022/05/31 08:03:39;;;;;;;4.88;1.85;;;;;;;23.53;48.30;96643.13;5132763;27;20474;-34
2022/05/31 08:06:13;;;;;;;5.88;2.50;;;;;;;23.50;48.49;96646.88;5134541;27;20026;-34
2022/05/31 08:08:39;;;;;;;4.55;2.28;;;;;;;23.55;48.50;96637.06;5134498;27;20096;-34
2022/05/31 08:11:10;;;;;;;8.60;2.25;;;;;;;23.70;48.10;96648.59;5134792;27;20064;-34
2022/05/31 08:13:36;;;;;;;5.65;2.28;;;;;;;23.60;48.04;96653.69;5134839;27;20015;-34
2022/05/31 08:16:04;;;;;;;6.70;1.90;;;;;;;23.38;48.52;96650.16;5116309;27;20396;-34
2022/05/31 08:18:29;;;;;;;9.55;2.08;;;;;;;23.26;49.19;96644.66;5134999;27;20023;-34
2022/05/31 08:21:04;;;;;;;8.45;2.25;;;;;;;23.38;48.71;96650.16;5134681;27;20079;-34
2022/05/31 08:23:29;;;;;;;7.90;1.98;;;;;;;23.55;48.34;96648.91;5134698;27;20029;-34
2022/05/31 08:25:55;;;;;;;9.43;2.60;;;;;;;23.51;48.08;96648.41;5134350;27;20094;-34
2022/05/31 08:28:21;;;;;;;7.55;2.20;;;;;;;23.47;48.75;96652.69;5134497;27;20497;-34
2022/05/31 08:30:50;;;;;;;7.47;2.45;;;;;;;23.26;48.03;96654.97;5134379;27;20102;-34
2022/05/31 08:33:15;;;;;;;10.77;2.53;;;;;;;23.27;48.65;96657.22;5134421;27;20039;-34
2022/05/31 08:35:40;;;;;;;8.90;2.53;;;;;;;23.68;47.33;96673.28;5134405;27;20012;-34
2022/05/31 08:38:06;;;;;;;8.20;2.17;;;;;;;23.80;47.35;96660.16;5134205;27;20475;-34
2022/05/31 08:41:00;;;;;;;5.13;1.83;;;;;;;23.79;47.26;96662.16;5134373;27;20023;-34
2022/05/31 08:43:57;;;;;;;5.72;2.28;;;;;;;23.77;47.36;96675.00;5105135;27;20374;-34
2022/05/31 08:46:50;;;;;;;11.52;2.10;;;;;;;23.87;46.96;96679.00;5125765;27;20067;-35
2022/05/31 08:49:15;;;;;;;8.95;1.83;;;;;;;23.87;47.01;96682.53;5134231;27;20024;-34
2022/05/31 08:52:13;;;;;;;10.20;3.65;;;;;;;23.68;47.15;96676.06;5134542;27;20050;-34
2022/05/31 08:57:44;;;;;;;5.47;2.25;;;;;;;23.41;47.63;96676.84;5133446;27;20107;-35
2022/05/31 09:00:17;;;;;;;5.70;1.90;;;;;;;23.32;48.12;96674.34;5133576;27;20023;-34
2022/05/31 09:02:54;;;;;;;7.43;2.28;;;;;;;23.06;48.87;96682.91;5132475;27;20042;-34
2022/05/31 09:05:30;;;;;;;6.80;1.92;;;;;;;23.32;48.06;96685.41;5131006;27;20509;-34
2022/05/31 09:08:13;;;;;;;9.25;2.28;;;;;;;23.26;48.21;96683.38;5118710;27;20535;-34
2022/05/31 09:10:46;;;;;;;7.45;2.00;;;;;;;23.33;48.08;96681.38;5113847;28;20028;-34
2022/05/31 09:13:36;;;;;;;7.93;1.90;;;;;;;23.29;48.25;96673.31;5113656;28;20112;-34
2022/05/31 09:16:09;;;;;;;10.55;2.50;;;;;;;23.41;48.03;96679.59;5113504;28;20459;-34
2022/05/31 09:18:53;;;;;;;7.65;2.33;;;;;;;23.46;47.92;96685.13;5113563;28;20139;-35
2022/05/31 09:21:37;;;;;;;6.80;2.30;;;;;;;23.49;47.94;96684.09;5113641;28;20546;-34
2022/05/31 09:24:06;;;;;;;7.57;2.53;;;;;;;23.32;48.23;96679.88;5113642;28;20035;-34
2022/05/31 09:26:51;;;;;;;6.43;1.92;;;;;;;23.43;48.48;96682.63;5113424;28;20030;-34
2022/05/31 09:29:21;;;;;;;9.82;2.78;;;;;;;23.52;48.08;96676.84;5113542;28;20024;-34
2022/05/31 09:32:23;;;;;;;4.85;2.58;;;;;;;23.50;48.01;96682.88;5114221;28;20027;-36
2022/05/31 09:35:07;;;;;;;9.32;2.97;;;;;;;23.62;47.72;96691.91;5098869;28;20379;-34
2022/05/31 09:37:43;;;;;;;5.32;1.73;;;;;;;23.57;47.97;96684.38;5115656;27;20028;-34
2022/05/31 09:40:32;;;;;;;6.65;2.50;;;;;;;23.72;47.30;96695.19;5115353;28;20409;-34
2022/05/31 09:43:07;;;;;;;6.60;2.03;;;;;;;23.70;47.76;96697.69;5115143;28;20357;-35
2022/05/31 09:45:36;;;;;;;13.13;2.70;;;;;;;23.75;47.31;96688.59;5115006;28;20035;-34
2022/05/31 09:48:04;;;;;;;7.43;2.20;;;;;;;23.67;47.57;96691.16;5114842;28;20472;-35
2022/05/31 09:50:31;;;;;;;7.07;2.30;;;;;;;23.83;47.11;96684.06;5113436;28;20020;-34
2022/05/31 09:52:57;;;;;;;8.82;2.20;;;;;;;23.69;47.73;96698.97;5114865;28;20047;-34
2022/05/31 09:58:39;;;;;;;10.73;2.20;;;;;;;23.63;48.01;96693.41;5127943;27;20414;-34
2022/05/31 10:01:04;;;;;;;6.82;2.15;;;;;;;23.74;47.83;96676.78;5132628;27;20035;-34
2022/05/31 10:03:38;;;;;;;8.43;2.28;;;;;;;23.80;47.45;96680.28;5134429;27;20038;-34
2022/05/31 10:06:11;;;;;;;13.43;2.33;;;;;;;23.83;47.46;96684.81;5135308;27;20039;-35
2022/05/31 10:08:36;;;;;;;;;;;;;;;23.67;48.13;96676.56;5135883;27;20482;-34
2022/05/31 10:11:13;;;;;;;4.40;2.25;;;;;;;23.84;47.53;96694.63;5135107;27;19907;-35
2022/05/31 10:13:43;;;;;;;9.80;2.65;;;;;;;23.71;48.48;96686.13;5121278;27;20084;-34
2022/05/31 10:16:14;;;;;;;9.02;2.17;;;;;;;23.72;48.04;96687.63;5114567;28;20364;-34
2022/05/31 10:18:51;;;;;;;8.95;2.00;;;;;;;23.67;48.36;96685.63;5114530;28;20030;-34
2022/05/31 10:21:41;;;;;;;6.63;2.10;;;;;;;23.87;47.73;96685.28;5114186;28;20425;-34
2022/05/31 10:24:18;;;;;;;8.55;2.10;;;;;;;23.73;48.42;96686.38;5113820;28;20015;-34
2022/05/31 10:26:45;;;;;;;6.75;1.83;;;;;;;23.76;48.31;96688.09;5114327;28;20042;-34
2022/05/31 10:29:23;;;;;;;5.35;2.15;;;;;;;23.85;47.79;96684.31;5114021;28;20034;-34
2022/05/31 10:31:50;;;;;;;2.95;1.80;;;;;;;23.93;47.70;96688.06;5114064;28;20028;-34
2022/05/31 10:34:36;;;;;;;6.85;2.10;;;;;;;23.83;48.01;96689.59;5114111;28;20080;-34
2022/05/31 10:37:05;;;;;;;4.78;1.85;;;;;;;23.83;48.23;96679.28;5113933;28;20016;-34
2022/05/31 10:39:36;;;;;;;6.75;2.00;;;;;;;23.86;48.24;96685.81;5113850;28;20023;-34
2022/05/31 10:42:07;;;;;;;7.45;2.42;;;;;;;23.94;47.86;96678.47;5114305;28;20375;-35
2022/05/31 10:44:55;;;;;;;9.82;2.42;;;;;;;23.94;47.87;96679.25;5112726;28;20051;-34
2022/05/31 10:47:24;;;;;;;5.63;2.00;;;;;;;23.91;48.01;96671.94;5113954;28;20028;-34
2022/05/31 10:49:50;;;;;;;11.05;2.35;;;;;;;23.92;47.97;96678.25;5111704;28;20031;-34
2022/05/31 10:52:41;;;;;;;9.77;2.60;;;;;;;23.91;48.23;96671.94;5113543;28;20032;-35
2022/05/31 10:55:40;;;;;;;5.05;1.90;;;;;;;23.88;48.26;96674.97;5113578;28;20050;-34
2022/05/31 10:58:09;;;;;;;4.72;1.95;;;;;;;23.91;48.09;96663.63;5113618;28;20059;-34
2022/05/31 11:00:51;;;;;;;12.90;2.45;;;;;;;23.92;48.01;96681.00;5122379;27;20027;-34
2022/05/31 11:03:34;;;;;;;8.60;1.73;;;;;;;23.77;48.77;96670.22;5136190;27;20034;-35
2022/05/31 11:06:08;;;;;;;6.00;1.70;;;;;;;23.90;48.12;96670.44;5135936;27;20368;-34
2022/05/31 11:11:52;;;;;;;6.43;1.90;;;;;;;23.74;48.73;96682.31;5135476;27;20514;-34
2022/05/31 11:14:36;;;;;;;7.00;1.98;;;;;;;23.82;48.33;96655.63;5135680;27;20096;-35
2022/05/31 11:17:04;;;;;;;6.28;1.80;;;;;;;23.89;47.96;96657.09;5135754;27;20066;-34
2022/05/31 11:19:36;;;;;;;5.70;2.05;;;;;;;23.96;47.33;96657.31;5135237;27;20481;-34
2022/05/31 11:22:24;;;;;;;6.40;2.05;;;;;;;23.97;47.54;96660.84;5135676;27;20030;-34
2022/05/31 11:25:20;;;;;;;8.82;2.35;;;;;;;23.83;47.69;96648.81;5135058;27;20034;-34
2022/05/31 11:28:01;;;;;;;7.50;1.98;;;;;;;23.87;47.54;96654.81;5135283;27;20102;-34
2022/05/31 11:30:39;;;;;;;7.28;1.90;;;;;;;23.91;47.39;96651.78;5135708;27;20052;-34
2022/05/31 11:33:38;;;;;;;8.43;2.10;;;;;;;23.97;47.41;96647.75;5135273;27;20076;-34
2022/05/31 11:36:26;;;;;;;9.23;2.22;;;;;;;24.03;47.45;96649.72;5135396;27;20031;-34
2022/05/31 11:42:37;;;;;;;9.82;2.28;;;;;;;24.09;47.36;96653.25;5135225;27;20034;-34
2022/05/31 11:45:41;;;;;;;7.45;1.88;;;;;;;24.12;47.11;96641.13;5135244;27;20019;-34
2022/05/31 11:48:28;;;;;;;9.25;2.22;;;;;;;23.97;47.50;96644.97;5106516;27;20471;-34
2022/05/31 11:50:59;;;;;;;4.53;1.98;;;;;;;24.08;47.29;96646.19;5135152;27;20031;-34
2022/05/31 11:53:44;;;;;;;5.78;1.92;;;;;;;24.17;47.07;96657.72;5135432;27;20023;-34
2022/05/31 11:56:23;;;;;;;9.13;1.77;;;;;;;24.06;47.74;96629.31;5134779;27;20019;-34
2022/05/31 11:58:57;;;;;;;8.77;2.25;;;;;;;24.12;47.69;96652.19;5135035;27;20047;-34
2022/05/31 12:01:34;;;;;;;7.57;2.30;;;;;;;23.98;48.08;96646.47;5134917;27;20035;-34
2022/05/31 12:04:27;;;;;;;11.00;2.70;;;;;;;24.08;47.85;96646.19;5134810;27;20039;-34
2022/05/31 12:06:55;;;;;;;5.50;1.80;;;;;;;24.11;47.89;96650.72;5135174;27;20027;-34
2022/05/31 12:09:39;;;;;;;6.32;2.00;;;;;;;24.11;47.67;96648.69;5134592;27;20393;-34
2022/05/31 12:12:07;;;;;;;8.95;1.73;;;;;;;24.15;48.01;96637.31;5134933;27;20424;-34
2022/05/31 12:14:39;;;;;;;10.32;2.15;;;;;;;23.90;48.19;96669.69;5134806;27;20019;-34
2022/05/31 12:17:06;;;;;;;8.10;2.37;;;;;;;24.09;47.99;96656.00;5134683;27;20027;-34
2022/05/31 12:19:36;;;;;;;5.70;1.95;;;;;;;24.22;47.61;96640.34;5134629;27;20479;-34
2022/05/31 12:22:12;;;;;;;6.57;2.08;;;;;;;24.24;47.56;96635.03;5134320;27;20125;-34